createdAt,value
2023-03-11T00:01:53.149Z,16.70
2023-03-11T00:04:21.521Z,15.20
2023-03-11T00:06:49.832Z,15.50
2023-03-11T00:09:19.678Z,15.20
2023-03-11T00:11:47.778Z,15.70
2023-03-11T00:14:17.198Z,17.10
2023-03-11T00:16:45.341Z,15.70
2023-03-11T00:19:16.382Z,16.30
2023-03-11T00:21:45.499Z,16.20
2023-03-11T00:24:13.539Z,16.30
2023-03-11T00:26:42.926Z,15.90
2023-03-11T00:29:11.024Z,16.40
2023-03-11T00:31:39.553Z,15.70
2023-03-11T00:34:21.707Z,17.10
2023-03-11T00:36:51.852Z,16.80
2023-03-11T00:39:20.156Z,16.30
2023-03-11T00:41:50.954Z,15.90
2023-03-11T00:44:19.102Z,16.50
2023-03-11T00:46:47.089Z,17.20
2023-03-11T00:49:15.673Z,16.30
2023-03-11T00:51:44.748Z,16.00
2023-03-11T00:54:15.307Z,16.30
2023-03-11T00:56:43.361Z,15.40
2023-03-11T00:59:13.467Z,16.90
2023-03-11T01:01:44.371Z,15.70
2023-03-11T01:04:14.165Z,15.30
2023-03-11T01:06:45.754Z,15.80
2023-03-11T01:09:14.544Z,14.70
2023-03-11T01:11:45.785Z,15.20
2023-03-11T01:14:15.774Z,15.80
2023-03-11T01:16:47.312Z,16.30
2023-03-11T01:19:18.458Z,15.00
2023-03-11T01:21:47.851Z,16.00
2023-03-11T01:24:16.319Z,16.20
2023-03-11T01:26:50.245Z,14.30
2023-03-11T01:29:19.381Z,15.50
2023-03-11T01:31:47.813Z,16.20
2023-03-11T01:34:16.771Z,15.30
2023-03-11T01:36:49.122Z,15.50
2023-03-11T01:39:18.795Z,15.70
2023-03-11T01:41:46.819Z,14.00
2023-03-11T01:44:15.711Z,15.00
2023-03-11T01:46:53.553Z,14.40
2023-03-11T01:49:29.869Z,14.80
2023-03-11T01:52:06.086Z,16.40
2023-03-11T01:54:37.789Z,14.60
2023-03-11T01:57:08.343Z,12.60
2023-03-11T01:59:41.115Z,13.00
2023-03-11T02:02:38.927Z,14.50
2023-03-11T02:05:10.223Z,13.00
2023-03-11T02:07:40.549Z,14.60
2023-03-11T02:10:15.434Z,12.20
2023-03-11T02:12:52.354Z,12.80
2023-03-11T02:15:26.634Z,13.00
2023-03-11T02:17:56.785Z,11.80
2023-03-11T02:20:49.367Z,13.00
2023-03-11T02:23:26.439Z,12.70
2023-03-11T02:26:02.685Z,10.70
2023-03-11T02:28:34.613Z,13.10
2023-03-11T02:31:03.780Z,12.40
2023-03-11T02:33:32.891Z,12.80
2023-03-11T02:36:07.488Z,12.20
2023-03-11T02:38:37.272Z,12.30
2023-03-11T02:41:05.919Z,12.40
2023-03-11T02:43:42.693Z,11.70
2023-03-11T02:48:40.033Z,11.50
2023-03-11T02:51:08.098Z,11.80
2023-03-11T02:53:46.974Z,12.80
2023-03-11T02:56:16.038Z,11.50
2023-03-11T02:58:44.338Z,10.90
2023-03-11T03:01:13.099Z,11.80
2023-03-11T03:03:42.946Z,12.50
2023-03-11T03:06:13.006Z,11.70
2023-03-11T03:08:42.536Z,11.30
2023-03-11T03:11:10.623Z,11.50
2023-03-11T03:13:38.797Z,11.30
2023-03-11T03:16:07.099Z,11.90
2023-03-11T03:18:35.313Z,11.10
2023-03-11T03:21:04.617Z,11.20
2023-03-11T03:23:35.410Z,10.80
2023-03-11T03:26:06.860Z,10.60
2023-03-11T03:28:38.636Z,10.80
2023-03-11T03:31:08.056Z,11.40
2023-03-11T03:33:37.864Z,11.50
2023-03-11T03:36:09.024Z,10.80
2023-03-11T03:38:42.578Z,10.60
2023-03-11T03:41:13.902Z,11.90
2023-03-11T03:43:42.497Z,13.60
2023-03-11T03:46:11.524Z,13.40
2023-03-11T03:48:43.070Z,12.20
2023-03-11T03:51:12.315Z,12.60
2023-03-11T03:53:43.902Z,12.90
2023-03-11T03:56:17.476Z,13.20
2023-03-11T03:58:46.029Z,13.20
2023-03-11T04:01:14.503Z,13.60
2023-03-11T04:03:43.695Z,12.80
2023-03-11T04:06:26.986Z,13.00
2023-03-11T04:09:07.637Z,13.50
2023-03-11T04:11:38.953Z,13.60
2023-03-11T04:14:08.345Z,14.00
2023-03-11T04:16:40.820Z,13.20
2023-03-11T04:20:24.207Z,13.20
2023-03-11T04:22:54.299Z,14.30
2023-03-11T04:25:24.211Z,14.40
2023-03-11T04:27:52.966Z,16.00
2023-03-11T04:30:21.765Z,13.90
2023-03-11T04:32:55.882Z,13.00
2023-03-11T04:35:28.373Z,14.50
2023-03-11T04:37:56.921Z,14.80
2023-03-11T04:40:25.616Z,13.60
2023-03-11T04:42:54.617Z,13.70
2023-03-11T04:45:23.121Z,14.60
2023-03-11T04:47:51.922Z,13.90
2023-03-11T04:50:20.394Z,16.40
2023-03-11T04:52:48.804Z,14.60
2023-03-11T04:55:16.989Z,15.60
2023-03-11T04:57:45.238Z,14.00
2023-03-11T05:00:15.956Z,14.50
2023-03-11T05:02:48.095Z,15.00
2023-03-11T05:05:17.447Z,15.50
2023-03-11T05:10:22.723Z,13.60
2023-03-11T05:12:55.284Z,14.80
2023-03-11T05:15:25.663Z,14.70
2023-03-11T05:17:55.125Z,15.00
2023-03-11T05:20:23.846Z,15.00
2023-03-11T05:22:52.631Z,15.40
2023-03-11T05:25:21.022Z,14.10
2023-03-11T05:27:50.994Z,15.60
2023-03-11T05:30:20.340Z,15.70
2023-03-11T05:32:49.301Z,16.10
2023-03-11T05:35:18.999Z,15.80
2023-03-11T05:37:49.873Z,16.20
2023-03-11T05:40:20.880Z,16.90
2023-03-11T05:42:49.317Z,17.00
2023-03-11T05:45:18.351Z,16.40
2023-03-11T05:47:48.331Z,16.10
2023-03-11T05:50:17.162Z,16.10
2023-03-11T05:52:46.086Z,16.40
2023-03-11T05:55:14.432Z,17.20
2023-03-11T05:57:46.908Z,18.00
2023-03-11T06:00:16.005Z,17.30
2023-03-11T06:02:53.013Z,16.80
2023-03-11T06:05:22.264Z,17.10
2023-03-11T06:07:50.953Z,15.40
2023-03-11T06:10:19.268Z,18.00
2023-03-11T06:12:47.787Z,18.20
2023-03-11T06:15:26.825Z,18.50
2023-03-11T06:17:55.322Z,18.30
2023-03-11T06:20:28.658Z,17.80
2023-03-11T06:22:56.990Z,17.60
2023-03-11T06:25:25.063Z,17.80
2023-03-11T06:27:53.744Z,18.20
2023-03-11T06:30:24.235Z,17.40
2023-03-11T06:33:15.727Z,16.80
2023-03-11T06:35:44.622Z,16.80
2023-03-11T06:38:14.406Z,16.90
2023-03-11T06:40:45.191Z,17.70
2023-03-11T06:43:13.419Z,19.50
2023-03-11T06:45:44.664Z,19.20
2023-03-11T06:48:13.352Z,17.60
2023-03-11T06:50:41.846Z,17.90
2023-03-11T06:53:11.075Z,18.20
2023-03-11T06:55:39.633Z,20.60
2023-03-11T06:58:07.905Z,19.00
2023-03-11T07:00:35.965Z,21.10
2023-03-11T07:03:05.254Z,18.60
2023-03-11T07:05:33.644Z,17.70
2023-03-11T07:08:05.549Z,17.10
2023-03-11T07:10:40.986Z,18.10
2023-03-11T07:13:09.737Z,18.20
2023-03-11T07:15:38.253Z,18.30
2023-03-11T07:18:07.468Z,19.50
2023-03-11T07:20:35.591Z,17.10
2023-03-11T07:23:03.606Z,18.10
2023-03-11T07:25:33.395Z,17.50
2023-03-11T07:28:01.597Z,18.30
2023-03-11T07:30:30.332Z,19.30
2023-03-11T07:33:00.475Z,17.70
2023-03-11T07:35:28.780Z,20.10
2023-03-11T07:38:01.237Z,17.90
2023-03-11T07:40:29.729Z,17.70
2023-03-11T07:42:59.284Z,17.70
2023-03-11T07:45:27.736Z,18.00
2023-03-11T07:47:56.902Z,17.90
2023-03-11T07:50:26.192Z,19.00
2023-03-11T07:52:55.435Z,18.80
2023-03-11T07:55:27.262Z,17.00
2023-03-11T07:57:55.527Z,17.30
2023-03-11T08:00:23.622Z,16.70
2023-03-11T08:02:52.406Z,17.10
2023-03-11T08:05:21.038Z,17.70
2023-03-11T08:07:53.055Z,19.10
2023-03-11T08:10:21.837Z,17.90
2023-03-11T08:12:52.712Z,17.70
2023-03-11T08:15:20.980Z,16.90
2023-03-11T08:17:52.129Z,18.00
2023-03-11T08:20:20.662Z,16.90
2023-03-11T08:22:58.053Z,17.90
2023-03-11T08:25:28.550Z,19.10
2023-03-11T08:27:56.654Z,17.40
2023-03-11T08:30:24.926Z,16.70
2023-03-11T08:33:05.196Z,17.10
2023-03-11T08:35:34.009Z,16.20
2023-03-11T08:38:03.520Z,20.60
2023-03-11T08:40:31.585Z,20.20
2023-03-11T08:43:00.275Z,20.80
2023-03-11T08:45:28.425Z,20.40
2023-03-11T08:47:56.594Z,19.00
2023-03-11T08:50:24.911Z,20.00
2023-03-11T08:52:53.014Z,21.20
2023-03-11T08:55:26.041Z,19.70
2023-03-11T08:57:54.927Z,20.80
2023-03-11T09:00:23.982Z,19.90
2023-03-11T09:02:52.304Z,18.70
2023-03-11T09:05:20.613Z,19.10
2023-03-11T09:07:50.897Z,19.40
2023-03-11T09:10:19.189Z,22.30
2023-03-11T09:12:48.549Z,24.10
2023-03-11T09:15:17.774Z,23.20
2023-03-11T09:17:48.638Z,23.70
2023-03-11T09:20:22.328Z,25.80
2023-03-11T09:22:50.383Z,30.60
2023-03-11T09:25:18.313Z,32.30
2023-03-11T09:27:47.006Z,29.20
2023-03-11T09:30:15.357Z,26.90
2023-03-11T09:32:44.433Z,26.10
2023-03-11T09:35:13.475Z,23.80
2023-03-11T09:37:43.491Z,23.10
2023-03-11T09:40:16.806Z,21.40
2023-03-11T09:43:04.946Z,19.90
2023-03-11T09:45:35.853Z,19.40
2023-03-11T09:48:18.418Z,20.20
2023-03-11T09:50:49.145Z,19.50
2023-03-11T09:53:36.824Z,18.40
2023-03-11T09:56:07.342Z,20.20
2023-03-11T09:58:55.441Z,22.20
2023-03-11T10:01:53.244Z,21.30
2023-03-11T10:04:50.239Z,20.60
2023-03-11T10:07:27.560Z,22.60
2023-03-11T10:10:02.482Z,25.20
2023-03-11T10:12:49.073Z,24.80
2023-03-11T10:15:39.472Z,24.70
2023-03-11T10:18:49.012Z,25.90
2023-03-11T10:27:03.690Z,26.00
2023-03-11T10:30:09.194Z,28.80
2023-03-11T10:32:42.540Z,28.90
2023-03-11T10:35:17.369Z,27.60
2023-03-11T10:37:53.204Z,27.20
2023-03-11T10:40:33.498Z,27.00
2023-03-11T10:43:09.959Z,27.20
2023-03-11T10:45:43.958Z,26.00
2023-03-11T10:48:13.549Z,26.90
2023-03-11T10:50:48.215Z,29.50
2023-03-11T10:53:18.640Z,28.30
2023-03-11T10:55:51.726Z,26.10
2023-03-11T10:58:33.896Z,21.20
2023-03-11T11:01:04.199Z,23.00
2023-03-11T11:03:32.337Z,24.30
2023-03-11T11:06:06.540Z,22.40
2023-03-11T11:08:36.049Z,20.10
2023-03-11T11:11:20.377Z,20.80
2023-03-11T11:14:00.687Z,24.60
2023-03-11T11:16:29.253Z,24.90
2023-03-11T11:19:11.996Z,22.60
2023-03-11T11:21:44.101Z,23.50
2023-03-11T11:24:21.065Z,24.60
2023-03-11T11:27:11.468Z,23.20
2023-03-11T11:29:40.178Z,24.00
2023-03-11T11:32:24.081Z,24.80
2023-03-11T11:35:00.690Z,25.80
2023-03-11T11:37:35.484Z,22.90
2023-03-11T11:40:12.190Z,22.60
2023-03-11T11:42:42.419Z,21.70
2023-03-11T11:45:15.560Z,23.90
2023-03-11T11:47:48.993Z,21.40
2023-03-11T11:50:35.664Z,22.30
2023-03-11T11:53:24.079Z,21.20
2023-03-11T11:55:54.365Z,23.70
2023-03-11T11:58:23.234Z,23.70
2023-03-11T12:01:16.696Z,22.40
2023-03-11T12:04:21.098Z,23.40
2023-03-11T12:10:22.237Z,23.50
2023-03-11T12:13:17.645Z,22.90
2023-03-11T12:15:58.531Z,21.20
2023-03-11T12:18:37.814Z,22.20
2023-03-11T12:21:23.908Z,23.70
2023-03-11T12:24:23.724Z,22.30
2023-03-11T12:26:52.557Z,23.20
2023-03-11T12:29:35.489Z,22.80
2023-03-11T12:32:05.171Z,25.00
2023-03-11T12:34:34.560Z,23.70
2023-03-11T12:37:03.732Z,21.10
2023-03-11T12:39:36.751Z,23.60
2023-03-11T12:42:11.003Z,25.50
2023-03-11T12:44:41.424Z,23.40
2023-03-11T12:47:24.231Z,21.70
2023-03-11T12:49:57.374Z,24.20
2023-03-11T12:52:27.768Z,22.20
2023-03-11T12:54:56.895Z,20.40
2023-03-11T12:58:02.178Z,20.70
2023-03-11T13:01:18.696Z,21.60
2023-03-11T13:03:56.912Z,20.90
2023-03-11T13:07:07.814Z,18.60
2023-03-11T13:09:36.144Z,18.70
2023-03-11T13:12:23.942Z,20.40
2023-03-11T13:15:18.823Z,17.70
2023-03-11T13:18:16.386Z,18.20
2023-03-11T13:20:49.326Z,19.10
2023-03-11T13:23:23.277Z,18.70
2023-03-11T13:25:51.787Z,18.90
2023-03-11T13:28:36.993Z,18.10
2023-03-11T13:31:14.915Z,18.70
2023-03-11T13:34:14.081Z,19.80
2023-03-11T13:36:56.605Z,20.00
2023-03-11T13:40:04.291Z,18.50
2023-03-11T13:42:43.722Z,20.70
2023-03-11T13:45:22.658Z,19.20
2023-03-11T13:47:53.830Z,19.70
2023-03-11T13:50:28.380Z,20.10
2023-03-11T13:52:57.643Z,20.20
2023-03-11T13:58:24.645Z,18.10
2023-03-11T14:01:02.462Z,18.90
2023-03-11T14:03:37.628Z,18.70
2023-03-11T14:06:15.689Z,18.20
2023-03-11T14:08:55.892Z,18.90
2023-03-11T14:11:29.380Z,19.20
2023-03-11T14:14:02.639Z,20.40
2023-03-11T14:16:44.754Z,18.30
2023-03-11T14:19:17.674Z,19.00
2023-03-11T14:21:51.415Z,19.80
2023-03-11T14:24:25.764Z,20.40
2023-03-11T14:29:32.850Z,20.10
2023-03-11T14:32:32.326Z,20.00
2023-03-11T14:35:01.181Z,21.10
2023-03-11T14:37:32.897Z,20.30
2023-03-11T14:40:01.206Z,20.30
2023-03-11T14:42:39.072Z,22.00
2023-03-11T14:45:18.952Z,23.20
2023-03-11T14:48:04.094Z,23.00
2023-03-11T14:50:35.967Z,21.10
2023-03-11T14:53:25.712Z,21.10
2023-03-11T14:56:02.133Z,21.80
2023-03-11T14:58:40.083Z,20.10
2023-03-11T15:01:18.260Z,19.30
2023-03-11T15:04:09.147Z,22.70
2023-03-11T15:06:38.936Z,22.10
2023-03-11T15:09:14.019Z,19.70
2023-03-11T15:11:55.674Z,20.40
2023-03-11T15:14:33.149Z,19.00
2023-03-11T15:17:34.005Z,18.60
2023-03-11T15:20:22.477Z,18.60
2023-03-11T15:23:04.154Z,19.40
2023-03-11T15:25:35.172Z,21.20
2023-03-11T15:28:26.153Z,20.20
2023-03-11T15:31:22.142Z,20.30
2023-03-11T15:33:53.880Z,22.90
2023-03-11T15:36:41.476Z,24.90
2023-03-11T15:39:25.216Z,22.40
2023-03-11T15:42:09.577Z,32.30
2023-03-11T15:44:43.919Z,37.70
2023-03-11T15:47:18.430Z,35.80
2023-03-11T15:49:46.599Z,37.60
2023-03-11T15:52:15.181Z,37.10
2023-03-11T15:54:54.695Z,35.60
2023-03-11T15:57:26.646Z,31.40
2023-03-11T15:59:56.126Z,31.90
2023-03-11T16:02:28.546Z,32.30
2023-03-11T16:04:59.545Z,31.10
2023-03-11T16:07:39.207Z,29.80
2023-03-11T16:10:09.144Z,30.50
2023-03-11T16:12:44.996Z,32.90
2023-03-11T16:15:26.584Z,30.60
2023-03-11T16:18:00.188Z,32.90
2023-03-11T16:20:48.267Z,32.80
2023-03-11T16:23:26.937Z,32.20
2023-03-11T16:25:58.340Z,30.50
2023-03-11T16:28:27.733Z,30.10
2023-03-11T16:30:56.109Z,35.60
2023-03-11T16:33:25.178Z,33.70
2023-03-11T16:38:25.848Z,28.20
2023-03-11T16:40:57.742Z,30.00
2023-03-11T16:43:28.155Z,24.60
2023-03-11T16:45:56.642Z,24.70
2023-03-11T16:48:24.765Z,25.50
2023-03-11T16:50:53.657Z,26.60
2023-03-11T16:53:22.271Z,23.30
2023-03-11T16:55:53.200Z,24.10
2023-03-11T16:58:21.460Z,21.50
2023-03-11T17:00:49.639Z,25.30
2023-03-11T17:03:21.512Z,24.50
2023-03-11T17:05:51.390Z,22.00
2023-03-11T17:08:25.296Z,22.40
2023-03-11T17:10:55.137Z,25.40
2023-03-11T17:13:23.200Z,25.10
2023-03-11T17:15:59.359Z,24.20
2023-03-11T17:18:42.960Z,26.10
2023-03-11T17:21:12.942Z,29.00
2023-03-11T17:23:41.283Z,25.50
2023-03-11T17:26:14.635Z,25.80
2023-03-11T17:28:43.507Z,27.70
2023-03-11T17:31:13.192Z,26.60
2023-03-11T17:33:44.675Z,22.80
2023-03-11T17:36:14.386Z,23.70
2023-03-11T17:38:46.569Z,25.10
2023-03-11T17:41:16.278Z,26.60
2023-03-11T17:43:44.605Z,26.90
2023-03-11T17:46:15.520Z,27.30
2023-03-11T17:48:45.186Z,28.40
2023-03-11T17:51:22.014Z,25.70
2023-03-11T17:53:50.134Z,26.60
2023-03-11T17:56:21.659Z,26.70
2023-03-11T17:58:50.078Z,28.00
2023-03-11T18:01:23.500Z,28.60
2023-03-11T18:03:51.874Z,25.40
2023-03-11T18:06:20.072Z,27.70
2023-03-11T18:08:48.115Z,29.90
2023-03-11T18:11:20.676Z,30.90
2023-03-11T18:13:48.870Z,27.90
2023-03-11T18:16:19.584Z,26.70
2023-03-11T18:18:52.484Z,30.40
2023-03-11T18:21:29.023Z,30.30
2023-03-11T18:24:01.853Z,29.50
2023-03-11T18:26:31.528Z,37.10
2023-03-11T18:30:19.191Z,39.20
2023-03-11T18:33:01.352Z,37.60
2023-03-11T18:35:28.873Z,31.70
2023-03-11T18:37:58.533Z,30.90
2023-03-11T18:40:27.416Z,31.30
2023-03-11T18:42:54.080Z,29.30
2023-03-11T18:45:21.805Z,29.60
2023-03-11T18:47:49.362Z,32.20
2023-03-11T18:50:17.001Z,35.10
2023-03-11T18:52:43.937Z,37.10
2023-03-11T18:55:10.623Z,33.00
2023-03-11T18:57:41.089Z,32.20
2023-03-11T19:00:08.711Z,33.60
2023-03-11T19:02:36.395Z,39.40
2023-03-11T19:05:03.846Z,38.00
2023-03-11T19:07:30.734Z,32.50
2023-03-11T19:09:58.933Z,30.80
2023-03-11T19:12:29.152Z,28.80
2023-03-11T19:14:56.965Z,25.30
2023-03-11T19:17:23.836Z,23.20
2023-03-11T19:19:51.916Z,22.70
2023-03-11T19:22:18.933Z,21.60
2023-03-11T19:24:56.102Z,22.20
2023-03-11T19:27:23.823Z,23.00
2023-03-11T19:29:50.922Z,23.60
2023-03-11T19:32:19.100Z,22.10
2023-03-11T19:34:45.886Z,21.90
2023-03-11T19:37:12.630Z,25.50
2023-03-11T19:39:39.677Z,26.30
2023-03-11T19:42:06.635Z,24.60
2023-03-11T19:44:34.244Z,22.80
2023-03-11T19:47:00.981Z,24.20
2023-03-11T19:49:27.982Z,23.30
2023-03-11T19:51:56.923Z,21.70
2023-03-11T19:54:23.875Z,23.00
2023-03-11T19:56:50.961Z,21.50
2023-03-11T19:59:18.550Z,18.80
2023-03-11T20:01:45.282Z,19.20
2023-03-11T20:04:14.350Z,19.20
2023-03-11T20:06:41.208Z,17.70
2023-03-11T20:09:15.547Z,17.60
2023-03-11T20:11:42.635Z,17.80
2023-03-11T20:14:11.068Z,16.70
2023-03-11T20:16:37.896Z,16.80
2023-03-11T20:19:04.846Z,15.70
2023-03-11T20:21:32.474Z,16.40
2023-03-11T20:23:59.541Z,16.80
2023-03-11T20:26:27.032Z,16.60
2023-03-11T20:28:56.854Z,14.80
2023-03-11T20:31:25.674Z,17.30
2023-03-11T20:33:52.594Z,17.30
2023-03-11T20:36:24.761Z,16.20
2023-03-11T20:38:52.426Z,16.50
2023-03-11T20:41:19.252Z,14.90
2023-03-11T20:43:46.360Z,14.50
2023-03-11T20:46:16.233Z,14.50
2023-03-11T20:48:46.435Z,14.40
2023-03-11T20:51:15.996Z,14.60
2023-03-11T20:53:46.521Z,13.50
2023-03-11T20:56:15.517Z,13.40
2023-03-11T20:58:43.079Z,12.00
2023-03-11T21:01:15.687Z,11.80
2023-03-11T21:03:43.368Z,11.40
2023-03-11T21:06:15.032Z,11.60
2023-03-11T21:08:41.728Z,12.10
2023-03-11T21:11:08.442Z,11.10
2023-03-11T21:13:35.437Z,12.80
2023-03-11T21:16:04.723Z,11.40
2023-03-11T21:18:33.194Z,9.90
2023-03-11T21:20:59.931Z,10.30
2023-03-11T21:23:29.492Z,10.40
2023-03-11T21:25:58.387Z,9.40
2023-03-11T21:28:26.303Z,10.40
2023-03-11T21:31:14.343Z,10.80
2023-03-11T21:33:41.479Z,12.10
2023-03-11T21:36:12.107Z,11.70
2023-03-11T21:38:40.035Z,10.30
2023-03-11T21:41:10.206Z,10.60
2023-03-11T21:43:37.941Z,10.10
2023-03-11T21:46:05.122Z,8.80
2023-03-11T21:48:32.468Z,10.50
2023-03-11T21:50:59.323Z,9.30
2023-03-11T21:53:26.322Z,8.70
2023-03-11T21:55:53.122Z,9.20
2023-03-11T21:58:19.824Z,8.70
2023-03-11T22:00:47.078Z,7.90
2023-03-11T22:03:13.985Z,7.60
2023-03-11T22:05:41.728Z,7.50
2023-03-11T22:08:13.955Z,6.60
2023-03-11T22:10:43.872Z,6.40
2023-03-11T22:13:14.200Z,5.60
2023-03-11T22:15:42.433Z,6.30
2023-03-11T22:18:10.131Z,5.70
2023-03-11T22:20:37.654Z,6.70
2023-03-11T22:23:04.519Z,5.30
2023-03-11T22:25:33.443Z,5.20
2023-03-11T22:28:00.520Z,4.50
2023-03-11T22:30:27.249Z,3.70
2023-03-11T22:32:56.238Z,4.20
2023-03-11T22:35:24.734Z,4.20
2023-03-11T22:37:51.546Z,4.00
2023-03-11T22:40:18.476Z,2.90
2023-03-11T22:42:45.421Z,3.20
2023-03-11T22:45:14.909Z,2.80
2023-03-11T22:47:42.560Z,3.00
2023-03-11T22:50:09.834Z,2.70
2023-03-11T22:52:37.645Z,3.20
2023-03-11T22:55:04.805Z,2.70
2023-03-11T22:57:38.267Z,2.80
2023-03-11T23:00:21.256Z,3.40
2023-03-11T23:02:52.243Z,3.30
2023-03-11T23:05:19.855Z,2.50
2023-03-11T23:07:48.966Z,3.00
2023-03-11T23:10:21.568Z,2.80
2023-03-11T23:12:49.002Z,2.70
2023-03-11T23:15:18.909Z,2.50
2023-03-11T23:17:47.253Z,2.60
2023-03-11T23:20:14.564Z,2.80
2023-03-11T23:22:41.504Z,2.80
2023-03-11T23:25:14.367Z,3.00
2023-03-11T23:27:42.386Z,2.80
2023-03-11T23:30:10.725Z,2.60
2023-03-11T23:32:37.802Z,3.10
2023-03-11T23:35:05.891Z,3.10
2023-03-11T23:37:32.637Z,2.80
2023-03-11T23:39:59.542Z,4.00
2023-03-11T23:42:26.575Z,3.40
2023-03-11T23:44:56.811Z,4.50
2023-03-11T23:47:25.735Z,3.90
2023-03-11T23:49:52.651Z,4.10
2023-03-11T23:52:19.974Z,4.10
2023-03-11T23:54:47.052Z,4.00
2023-03-11T23:57:13.640Z,6.20
2023-03-11T23:59:42.788Z,5.40
